Atmospheric History
02/08/2018 18:33  to  2/9/2018 18:33
Change End Date:
To complete the export process:
1) Select all of the data below
2) Copy the data to the clipboard
3) Open a word processor such as Notepad
4) Paste the data into the word processor
5) Save the file

Date/Time (MST), AirTemp, RH, Dewpoint ,AvgWindSpeed, GustWindSpeed, WindDirection, PrecipType, PrecipIntensity, PrecipAccumulation, PrecipRate
02/09/2018 18:26, 0, 84, -4 ,0, 1, N, Snow, Slight, 0.26, 0
02/09/2018 18:25, 0, 84, -4 ,0, 1, N, Snow, Slight, 0.26, 0
02/09/2018 18:16, 0, 84, -4 ,0, 2, N, Snow, Slight, 0.26, 0
02/09/2018 18:10, 0, 84, -4 ,1, 3, N, Snow, Slight, 0.26, 0
02/09/2018 18:06, 0, 84, -4 ,1, 3, N, Snow, Slight, 0.26, 0
02/09/2018 17:56, 0, 84, -4 ,0, 4, N, Snow, Slight, 0.26, 0
02/09/2018 17:55, 0, 84, -4 ,0, 4, N, Snow, Slight, 0.26, 0
02/09/2018 17:46, 0, 84, -3 ,1, 5, N, Snow, Slight, 0.26, 0
02/09/2018 17:40, 0, 84, -3 ,2, 5, N, Snow, Slight, 0.26, 0
02/09/2018 17:36, 0, 84, -4 ,3, 6, SE, Snow, Slight, 0.26, 0
02/09/2018 17:26, 1, 85, -3 ,4, 6, E, Snow, Slight, 0.26, 0
02/09/2018 17:25, 1, 85, -3 ,4, 6, E, Snow, Slight, 0.26, 0
02/09/2018 17:16, 1, 85, -3 ,5, 7, E, Snow, Slight, 0.26, 0
02/09/2018 17:10, 1, 85, -3 ,6, 7, E, Snow, Slight, 0.26, 0
02/09/2018 17:06, 1, 84, -3 ,6, 6, E, Snow, Slight, 0.26, 0
02/09/2018 16:56, 1, 84, -3 ,6, 6, E, Snow, Slight, 0.26, 0
02/09/2018 16:55, 1, 84, -3 ,6, 6, E, Snow, Slight, 0.26, 0
02/09/2018 16:46, 1, 84, -2 ,6, 7, E, Snow, Slight, 0.25, 0
02/09/2018 16:40, 1, 84, -2 ,4, 6, E, Snow, Slight, 0.25, 0
02/09/2018 16:36, 1, 84, -3 ,4, 6, SE, Snow, Slight, 0.25, 0
02/09/2018 16:26, 1, 85, -3 ,5, 7, E, Snow, Slight, 0.25, 0
02/09/2018 16:25, 1, 85, -3 ,5, 7, E, Snow, Slight, 0.25, 0
02/09/2018 16:16, 1, 84, -3 ,7, 7, E, Snow, Slight, 0.25, 0
02/09/2018 16:10, 0, 84, -3 ,4, 7, E, Snow, Slight, 0.25, 0
02/09/2018 16:06, 0, 84, -4 ,3, 7, N, Snow, Slight, 0.24, 0
02/09/2018 15:56, 0, 84, -4 ,2, 5, N, None, None, 0.25, 0
02/09/2018 15:55, 0, 84, -4 ,2, 5, N, None, None, 0.25, 0
02/09/2018 15:46, -1, 83, -5 ,0, 2, N, Snow, Slight, 0.25, 0
02/09/2018 15:40, -1, 83, -5 ,0, 1, N, Snow, Slight, 0.25, 0
02/09/2018 15:36, -1, 83, -5 ,0, 1, N, Snow, Slight, 0.25, 0
02/09/2018 15:26, -1, 83, -5 ,0, 4, N, Snow, Slight, 0.25, 0
02/09/2018 15:25, -1, 83, -5 ,0, 4, N, Snow, Slight, 0.25, 0
02/09/2018 15:15, -1, 83, -5 ,2, 7, N, Snow, Slight, 0.25, 0
02/09/2018 15:10, -1, 83, -5 ,2, 7, N, Snow, Slight, 0.25, 0
02/09/2018 15:05, -1, 83, -5 ,4, 7, N, Snow, Slight, 0.24, 0
02/09/2018 14:55, -1, 83, -5 ,2, 7, N, Snow, Slight, 0.25, 0
02/09/2018 14:55, -1, 83, -5 ,2, 7, N, Snow, Slight, 0.25, 0
02/09/2018 14:45, -1, 83, -5 ,0, 2, N, Snow, Slight, 0.24, 0
02/09/2018 14:40, -1, 83, -5 ,0, 4, N, Snow, Slight, 0.24, 0
02/09/2018 14:35, -1, 83, -5 ,1, 6, N, Snow, Slight, 0.24, 0
02/09/2018 14:25, -2, 82, -6 ,1, 7, N, Snow, Slight, 0.24, 0
02/09/2018 14:25, -2, 82, -6 ,1, 7, N, Snow, Slight, 0.24, 0
02/09/2018 14:15, -1, 83, -5 ,3, 7, N, Snow, Slight, 0.24, 0
02/09/2018 14:10, -1, 82, -5 ,0, 3, N, Snow, Slight, 0.24, 0
02/09/2018 14:05, -2, 82, -6 ,0, 2, N, Snow, Slight, 0.24, 0
02/09/2018 13:55, -2, 82, -6 ,0, 0, N, Snow, Slight, 0.24, 0
02/09/2018 13:55, -2, 82, -6 ,0, 0, N, Snow, Slight, 0.24, 0
02/09/2018 13:45, -3, 82, -7 ,0, 0, N, Snow, Slight, 0.23, 0
02/09/2018 13:40, -3, 82, -7 ,0, 0, N, Snow, Slight, 0.23, 0
02/09/2018 13:35, -3, 82, -7 ,0, 0, N, Snow, Slight, 0.23, 0
02/09/2018 13:25, -3, 82, -7 ,0, 0, N, Snow, Slight, 0.23, 0
02/09/2018 13:25, -3, 82, -7 ,0, 0, N, Snow, Slight, 0.23, 0
02/09/2018 13:15, -4, 82, -8 ,0, 0, N, Snow, Slight, 0.23, 0
02/09/2018 13:10, -4, 82, -8 ,0, 0, N, Snow, Slight, 0.23, 0
02/09/2018 13:05, -4, 82, -8 ,0, 0, N, Snow, Slight, 0.23, 0
02/09/2018 12:55, -4, 82, -8 ,0, 0, N, Snow, Slight, 0.23, 0
02/09/2018 12:55, -4, 82, -8 ,0, 0, N, Snow, Slight, 0.23, 0
02/09/2018 12:45, -4, 82, -8 ,0, 0, N, Snow, Slight, 0.23, 0
02/09/2018 12:40, -4, 82, -8 ,0, 0, N, Snow, Slight, 0.22, 0
02/09/2018 12:35, -4, 82, -8 ,0, 0, N, Snow, Slight, 0.22, 0
02/09/2018 12:25, -4, 82, -9 ,0, 0, N, Snow, Slight, 0.22, 0
02/09/2018 12:25, -4, 82, -9 ,0, 0, N, Snow, Slight, 0.22, 0
02/09/2018 12:15, -5, 82, -9 ,0, 0, N, Snow, Slight, 0.22, 0
02/09/2018 12:10, -5, 81, -10 ,0, 0, N, Snow, Slight, 0.22, 0
02/09/2018 12:05, -5, 81, -10 ,0, 0, N, Snow, Slight, 0.22, 0
02/09/2018 11:55, -6, 81, -10 ,0, 0, N, Snow, Slight, 0.22, 0
02/09/2018 11:55, -6, 81, -10 ,0, 0, N, Snow, Slight, 0.22, 0
02/09/2018 11:44, -6, 81, -10 ,0, 0, N, Snow, Slight, 0.22, 0
02/09/2018 11:40, -6, 81, -10 ,0, 0, N, Snow, Slight, 0.22, 0
02/09/2018 11:34, -6, 81, -11 ,0, 0, N, Snow, Slight, 0.22, 0
02/09/2018 11:25, -6, 81, -10 ,0, 0, N, Snow, Slight, 0.21, 0
02/09/2018 11:24, -6, 81, -10 ,0, 0, N, Snow, Slight, 0.21, 0.1
02/09/2018 11:14, -7, 81, -11 ,0, 0, N, Snow, Slight, 0.21, 0
02/09/2018 11:10, -6, 81, -10 ,0, 0, N, Snow, Slight, 0.2, 0.1
02/09/2018 11:04, -6, 81, -10 ,0, 0, N, Snow, Slight, 0.2, 0
02/09/2018 10:55, -7, 81, -11 ,0, 0, N, Snow, Slight, 0.2, 0
02/09/2018 10:54, -7, 81, -11 ,0, 0, N, Snow, Slight, 0.2, 0
02/09/2018 10:44, -7, 80, -12 ,0, 0, N, Snow, Slight, 0.2, 0
02/09/2018 10:40, -7, 80, -12 ,0, 0, N, Snow, Slight, 0.2, 0
02/09/2018 10:34, -7, 81, -11 ,0, 0, N, Snow, Slight, 0.2, 0
02/09/2018 10:25, -7, 80, -12 ,0, 0, N, Snow, Slight, 0.2, 0
02/09/2018 10:24, -8, 80, -12 ,0, 0, N, Snow, Slight, 0.2, 0
02/09/2018 10:14, -8, 81, -12 ,0, 0, N, Snow, Slight, 0.2, 0
02/09/2018 10:10, -8, 81, -12 ,0, 0, N, Snow, Slight, 0.2, 0
02/09/2018 10:04, -8, 80, -13 ,0, 0, N, Snow, Slight, 0.19, 0
02/09/2018 09:55, -9, 80, -13 ,0, 0, N, Snow, Slight, 0.19, 0
02/09/2018 09:54, -9, 80, -13 ,0, 0, N, Snow, Slight, 0.19, 0
02/09/2018 09:44, -9, 81, -13 ,0, 0, N, Snow, Slight, 0.19, 0
02/09/2018 09:40, -9, 80, -13 ,0, 0, N, Snow, Slight, 0.19, 0
02/09/2018 09:34, -9, 80, -13 ,0, 0, N, Snow, Slight, 0.18, 0
02/09/2018 09:25, -9, 80, -13 ,0, 0, N, Snow, Slight, 0.17, 0
02/09/2018 09:24, -9, 81, -13 ,0, 0, N, Snow, Slight, 0.17, 0
02/09/2018 09:14, -9, 81, -13 ,0, 0, N, Snow, Slight, 0.17, 0
02/09/2018 09:10, -9, 81, -13 ,0, 0, N, Snow, Slight, 0.17, 0
02/09/2018 09:04, -9, 81, -13 ,0, 0, N, Snow, Slight, 0.17, 0
02/09/2018 08:55, -9, 81, -13 ,0, 0, N, Snow, Slight, 0.16, 0
02/09/2018 08:54, -9, 81, -13 ,0, 0, N, Snow, Slight, 0.17, 0
02/09/2018 08:44, -9, 81, -14 ,0, 0, N, Snow, Slight, 0.17, 0
02/09/2018 08:40, -10, 80, -14 ,0, 0, N, Snow, Slight, 0.16, 0
02/09/2018 08:34, -9, 80, -14 ,0, 0, N, Snow, Slight, 0.16, 0
02/09/2018 08:25, -9, 81, -14 ,0, 0, N, Snow, Slight, 0.16, 0
02/09/2018 08:23, -9, 81, -14 ,0, 0, N, Snow, Slight, 0.16, 0
02/09/2018 08:13, -10, 80, -14 ,0, 0, N, Snow, Slight, 0.16, 0
02/09/2018 08:10, -10, 81, -14 ,0, 0, N, Snow, Slight, 0.16, 0
02/09/2018 08:03, -10, 80, -14 ,0, 0, N, Snow, Slight, 0.17, 0
02/09/2018 07:55, -10, 80, -14 ,0, 0, N, Snow, Slight, 0.16, 0
02/09/2018 07:53, -10, 80, -14 ,0, 0, N, Snow, Slight, 0.17, 0
02/09/2018 07:43, -10, 80, -14 ,0, 0, N, Snow, Slight, 0.16, 0
02/09/2018 07:40, -10, 80, -14 ,0, 0, N, Snow, Slight, 0.16, 0
02/09/2018 07:33, -10, 81, -14 ,0, 0, N, Snow, Slight, 0.16, 0
02/09/2018 07:25, -9, 81, -14 ,0, 0, N, Snow, Slight, 0.16, 0
02/09/2018 07:23, -10, 81, -14 ,0, 0, N, Snow, Slight, 0.16, 0
02/09/2018 07:13, -9, 81, -14 ,0, 0, N, Snow, Slight, 0.16, 0
02/09/2018 07:10, -9, 81, -14 ,0, 0, N, Snow, Slight, 0.16, 0
02/09/2018 07:03, -10, 81, -14 ,0, 0, N, Snow, Slight, 0.16, 0
02/09/2018 06:55, -10, 81, -14 ,0, 0, N, Snow, Slight, 0.16, 0
02/09/2018 06:53, -10, 81, -14 ,0, 0, N, Snow, Slight, 0.16, 0
02/09/2018 06:43, -10, 81, -14 ,0, 0, N, Snow, Slight, 0.16, 0
02/09/2018 06:40, -10, 81, -14 ,0, 0, N, Snow, Slight, 0.16, 0
02/09/2018 06:33, -10, 80, -14 ,0, 0, N, Snow, Slight, 0.16, 0
02/09/2018 06:25, -10, 80, -14 ,0, 0, N, Snow, Slight, 0.16, 0
02/09/2018 06:23, -10, 81, -14 ,0, 0, N, Snow, Slight, 0.16, 0
02/09/2018 06:13, -10, 81, -14 ,0, 0, N, Snow, Slight, 0.16, 0
02/09/2018 06:10, -10, 81, -14 ,0, 0, N, Snow, Slight, 0.16, 0
02/09/2018 06:03, -10, 81, -14 ,0, 0, N, Snow, Slight, 0.16, 0
02/09/2018 05:55, -10, 81, -14 ,0, 0, N, Snow, Slight, 0.16, 0
02/09/2018 05:53, -10, 81, -14 ,0, 0, N, Snow, Slight, 0.17, 0
02/09/2018 05:43, -10, 80, -14 ,0, 0, N, Other, Other, 0.17, 0
02/09/2018 05:40, -10, 80, -14 ,0, 0, N, Other, Other, 0.17, 0
02/09/2018 05:33, -9, 81, -14 ,0, 0, N, Snow, Slight, 0.17, 0
02/09/2018 05:25, -9, 81, -14 ,0, 0, N, Other, Other, 0.17, 0
02/09/2018 05:23, -10, 81, -14 ,0, 0, N, Other, Other, 0.17, 0
02/09/2018 05:13, -10, 81, -14 ,0, 0, N, Snow, Slight, 0.17, 0
02/09/2018 05:10, -10, 80, -14 ,0, 0, N, Snow, Slight, 0.17, 0
02/09/2018 05:03, -9, 81, -14 ,0, 0, N, Snow, Slight, 0.17, 0
02/09/2018 04:55, -9, 81, -13 ,0, 0, N, Snow, Slight, 0.17, 0
02/09/2018 04:52, -9, 81, -13 ,0, 0, N, Snow, Slight, 0.17, 0
02/09/2018 04:42, -9, 81, -14 ,0, 0, N, Snow, Slight, 0.17, 0
02/09/2018 04:40, -9, 81, -14 ,0, 0, N, Snow, Slight, 0.17, 0
02/09/2018 04:32, -9, 81, -13 ,0, 0, N, Snow, Slight, 0.17, 0
02/09/2018 04:25, -9, 81, -13 ,0, 0, N, Snow, Slight, 0.16, 0
02/09/2018 04:22, -9, 81, -13 ,0, 0, N, Snow, Slight, 0.16, 0
02/09/2018 04:12, -9, 81, -13 ,0, 0, N, Snow, Slight, 0.16, 0.1
02/09/2018 04:10, -9, 81, -13 ,0, 0, N, Snow, Slight, 0.16, 0
02/09/2018 04:02, -9, 81, -13 ,0, 0, N, Snow, Slight, 0.15, 0
02/09/2018 03:55, -9, 81, -13 ,0, 0, N, Snow, Slight, 0.15, 0
02/09/2018 03:52, -9, 81, -13 ,0, 0, N, Snow, Slight, 0.15, 0
02/09/2018 03:42, -9, 81, -13 ,0, 0, N, Snow, Slight, 0.15, 0
02/09/2018 03:40, -9, 81, -13 ,0, 0, N, Snow, Slight, 0.15, 0
02/09/2018 03:32, -9, 81, -13 ,0, 0, N, Snow, Slight, 0.15, 0
02/09/2018 03:25, -9, 81, -13 ,0, 0, N, Snow, Slight, 0.15, 0
02/09/2018 03:22, -9, 81, -13 ,0, 0, N, Snow, Slight, 0.15, 0
02/09/2018 03:12, -9, 81, -13 ,0, 0, N, Snow, Slight, 0.14, 0
02/09/2018 03:10, -9, 81, -13 ,0, 0, N, Snow, Slight, 0.14, 0
02/09/2018 03:02, -9, 81, -13 ,0, 0, N, Snow, Slight, 0.14, 0
02/09/2018 02:55, -9, 81, -13 ,0, 0, N, Snow, Slight, 0.14, 0
02/09/2018 02:52, -9, 81, -13 ,0, 0, N, Snow, Slight, 0.14, 0
02/09/2018 02:42, -9, 81, -13 ,0, 0, N, Snow, Slight, 0.13, 0
02/09/2018 02:40, -9, 81, -13 ,0, 0, N, Snow, Slight, 0.13, 0
02/09/2018 02:32, -9, 81, -13 ,0, 0, N, Snow, Slight, , 0
02/09/2018 02:25, -9, 81, -13 ,0, 0, N, Snow, Slight, , 0
02/09/2018 02:22, -9, 81, -13 ,0, 0, N, Snow, Slight, , 0
02/09/2018 02:12, -9, 81, -13 ,0, 0, N, Snow, Slight, , 0
02/09/2018 02:10, -9, 81, -13 ,0, 0, N, Snow, Slight, , 0
02/09/2018 02:02, -8, 81, -13 ,0, 0, N, Snow, Slight, , 0
02/09/2018 01:55, -8, 81, -12 ,0, 0, N, Snow, Slight, , 0
02/09/2018 01:52, -8, 81, -12 ,0, 0, N, Snow, Slight, , 0
02/09/2018 01:42, -8, 81, -12 ,0, 0, N, Snow, Slight, , 0
02/09/2018 01:40, -8, 81, -12 ,0, 0, N, Snow, Slight, , 0
02/09/2018 01:32, -8, 81, -12 ,0, 0, N, Snow, Slight, , 0
02/09/2018 01:25, -8, 81, -12 ,0, 0, N, Snow, Slight, , 0
02/09/2018 01:22, -8, 81, -12 ,0, 0, N, Snow, Slight, , 0
02/09/2018 01:12, -8, 81, -12 ,0, 0, N, Snow, Slight, , 0
02/09/2018 01:10, -8, 81, -12 ,0, 0, N, Snow, Slight, , 0
02/09/2018 01:01, -7, 82, -12 ,0, 0, N, Snow, Slight, , 0
02/09/2018 00:55, -7, 81, -12 ,0, 0, N, Snow, Slight, , 0
02/09/2018 00:51, -7, 82, -11 ,0, 0, N, Snow, Slight, , 0
02/09/2018 00:41, -7, 82, -12 ,0, 0, N, Snow, Slight, , 0
02/09/2018 00:40, -7, 81, -12 ,0, 0, N, Snow, Slight, , 0
02/09/2018 00:31, -7, 81, -12 ,0, 0, N, Other, Other, , 0
02/09/2018 00:25, -7, 82, -11 ,0, 0, N, Snow, Slight, , 0
02/09/2018 00:21, -6, 82, -10 ,0, 0, N, Other, Other, , 0
02/09/2018 00:11, -7, 82, -10 ,0, 0, N, Snow, Slight, , 0
02/09/2018 00:10, -7, 82, -11 ,0, 0, N, Snow, Slight, , 0
02/09/2018 00:01, -7, 82, -11 ,0, 0, N, Snow, Slight, , 0
02/08/2018 23:55, -7, 82, -11 ,0, 0, N, Snow, Slight, , 0
02/08/2018 23:51, -7, 82, -11 ,0, 0, N, Snow, Slight, , 0
02/08/2018 23:41, -7, 82, -11 ,0, 0, N, Snow, Slight, , 0
02/08/2018 23:40, -7, 82, -11 ,0, 0, N, Snow, Slight, , 0
02/08/2018 23:31, -7, 82, -11 ,0, 0, N, Other, Other, , 0
02/08/2018 23:25, -7, 82, -11 ,0, 0, N, Snow, Slight, , 0
02/08/2018 23:21, -6, 82, -10 ,0, 0, N, Snow, Slight, , 0
02/08/2018 23:11, -6, 82, -10 ,0, 0, N, Snow, Slight, , 0
02/08/2018 23:10, -6, 82, -10 ,0, 0, N, Snow, Slight, , 0
02/08/2018 23:01, -6, 82, -10 ,0, 0, N, Snow, Slight, , 0
02/08/2018 22:55, -6, 82, -10 ,0, 0, N, Snow, Slight, , 0
02/08/2018 22:51, -6, 82, -10 ,0, 0, N, Snow, Slight, , 0
02/08/2018 22:41, -6, 82, -10 ,0, 0, N, Other, Other, , 0
02/08/2018 22:40, -6, 82, -10 ,0, 0, N, Other, Other, , 0
02/08/2018 22:30, -7, 82, -10 ,0, 0, N, Snow, Slight, , 0
02/08/2018 22:25, -6, 82, -10 ,0, 0, N, Snow, Slight, , 0
02/08/2018 22:20, -6, 82, -10 ,0, 0, N, Snow, Slight, , 0
02/08/2018 22:10, -7, 82, -10 ,0, 0, N, Snow, Slight, , 0
02/08/2018 22:10, -7, 82, -10 ,0, 0, N, Snow, Slight, , 0
02/08/2018 22:00, -6, 82, -10 ,0, 1, N, Snow, Slight, , 0.1
02/08/2018 21:55, -6, 82, -10 ,0, 2, N, Snow, Slight, , 0
02/08/2018 21:50, -6, 82, -10 ,0, 2, N, Snow, Slight, , 0
02/08/2018 21:40, -6, 82, -10 ,0, 1, N, Snow, Slight, , 0
02/08/2018 21:40, -6, 82, -10 ,0, 1, N, Snow, Slight, , 0
02/08/2018 21:30, -6, 82, -10 ,0, 1, N, Snow, Slight, , 0
02/08/2018 21:25, -6, 82, -10 ,0, 1, N, Snow, Slight, , 0
02/08/2018 21:20, -6, 82, -10 ,0, 1, N, Snow, Slight, , 0
02/08/2018 21:10, -6, 82, -10 ,0, 1, N, Snow, Slight, , 0
02/08/2018 21:10, -6, 82, -10 ,0, 1, N, Snow, Slight, , 0
02/08/2018 21:00, -6, 82, -10 ,0, 2, N, Snow, Slight, , 0
02/08/2018 20:55, -6, 82, -10 ,0, 4, N, Snow, Slight, , 0
02/08/2018 20:50, -6, 82, -10 ,0, 5, N, Snow, Slight, , 0
02/08/2018 20:40, -6, 82, -10 ,1, 4, N, Snow, Slight, , 0
02/08/2018 20:40, -6, 82, -10 ,1, 4, N, Snow, Slight, , 0
02/08/2018 20:30, -5, 82, -9 ,1, 6, N, Snow, Slight, , 0
02/08/2018 20:25, -5, 83, -9 ,1, 9, N, Snow, Slight, , 0.1
02/08/2018 20:20, -5, 82, -9 ,2, 11, N, Snow, Slight, , 0
02/08/2018 20:10, -5, 83, -9 ,4, 14, N, Snow, Slight, , 0
02/08/2018 20:10, -5, 83, -9 ,4, 14, N, Snow, Slight, , 0
02/08/2018 20:00, -5, 83, -9 ,7, 15, N, Snow, Slight, , 0
02/08/2018 19:55, -6, 83, -9 ,9, 15, N, Other, Other, , 0
02/08/2018 19:50, -5, 82, -9 ,7, 15, N, Snow, Slight, , 0
02/08/2018 19:40, -5, 83, -9 ,4, 15, N, Snow, Slight, , 0
02/08/2018 19:39, -5, 83, -9 ,4, 15, N, Snow, Slight, , 0
02/08/2018 19:29, -5, 83, -9 ,6, 14, N, Snow, Slight, , 0
02/08/2018 19:25, -5, 83, -9 ,6, 16, N, Snow, Slight, , 0
02/08/2018 19:19, -5, 83, -9 ,8, 16, N, Snow, Slight, , 0
02/08/2018 19:10, -5, 83, -8 ,10, 17, N, Snow, Slight, , 0
02/08/2018 19:09, -5, 83, -8 ,9, 17, N, Snow, Slight, , 0
02/08/2018 18:59, -4, 83, -8 ,12, 18, N, Snow, Slight, , 0.1
02/08/2018 18:55, -4, 83, -8 ,14, 18, E, Snow, Slight, , 0
02/08/2018 18:49, -4, 83, -8 ,12, 19, E, Snow, Slight, , 0
02/08/2018 18:40, -4, 83, -8 ,14, 20, E, Snow, Slight, , 0
02/08/2018 18:39, -4, 83, -8 ,14, 20, E, Snow, Slight, , 0
Change End Date:

Copyright © 1998-2015 Vaisala, Inc.
All Rights Reserved
Send comments about the data to:
SCAN Web ® is a registered trademark of Vaisala, Inc.
SCAN Web Version 6.0